createdAt,value
2018-09-19T00:02:33.742Z,14.60
2018-09-19T00:05:16.842Z,15.40
2018-09-19T00:08:00.046Z,21.57
2018-09-19T00:11:12.107Z,20.00
2018-09-19T00:13:55.288Z,25.30
2018-09-19T00:16:37.503Z,17.83
2018-09-19T00:19:20.374Z,18.93
2018-09-19T00:22:02.976Z,20.43
2018-09-19T00:24:46.214Z,23.17
2018-09-19T00:27:28.552Z,28.30
2018-09-19T00:30:11.267Z,21.07
2018-09-19T00:32:54.102Z,22.27
2018-09-19T00:35:36.835Z,16.93
2018-09-19T00:38:19.544Z,15.90
2018-09-19T00:41:02.160Z,9.77
2018-09-19T00:43:45.444Z,15.43
2018-09-19T00:46:28.673Z,18.40
2018-09-19T00:49:11.359Z,20.03
2018-09-19T00:51:54.123Z,12.70
2018-09-19T00:54:36.797Z,11.07
2018-09-19T00:57:19.598Z,25.53
2018-09-19T01:00:02.429Z,14.40
2018-09-19T01:02:45.070Z,14.23
2018-09-19T01:05:27.825Z,16.43
2018-09-19T01:08:10.444Z,16.60
2018-09-19T01:10:53.058Z,13.20
2018-09-19T01:13:35.896Z,18.40
2018-09-19T01:16:19.415Z,16.77
2018-09-19T01:19:02.201Z,16.20
2018-09-19T01:21:44.934Z,15.33
2018-09-19T01:24:27.671Z,19.60
2018-09-19T01:27:10.203Z,23.37
2018-09-19T01:29:53.385Z,14.10
2018-09-19T01:32:36.264Z,20.17
2018-09-19T01:35:18.866Z,22.90
2018-09-19T01:38:01.334Z,17.53
2018-09-19T01:40:45.447Z,12.57
2018-09-19T01:43:28.042Z,19.80
2018-09-19T01:46:10.692Z,14.60
2018-09-19T01:48:53.413Z,12.83
2018-09-19T01:51:37.177Z,18.40
2018-09-19T01:54:19.938Z,15.03
2018-09-19T01:57:02.862Z,14.20
2018-09-19T01:59:45.078Z,12.60
2018-09-19T02:02:29.108Z,16.80
2018-09-19T02:05:11.706Z,18.43
2018-09-19T02:07:54.546Z,13.30
2018-09-19T02:10:37.622Z,12.90
2018-09-19T02:13:20.421Z,16.23
2018-09-19T02:16:03.095Z,28.20
2018-09-19T02:18:45.464Z,15.53
2018-09-19T02:21:28.252Z,14.73
2018-09-19T02:24:11.246Z,20.63
2018-09-19T02:26:53.740Z,7.90
2018-09-19T02:29:36.327Z,14.30
2018-09-19T02:32:19.194Z,15.40
2018-09-19T02:35:01.905Z,21.47
2018-09-19T02:37:44.832Z,14.93
2018-09-19T02:40:27.227Z,20.87
2018-09-19T02:43:09.775Z,23.00
2018-09-19T02:45:52.613Z,24.30
2018-09-19T02:48:35.210Z,20.53
2018-09-19T02:51:18.699Z,24.73
2018-09-19T02:54:01.945Z,16.13
2018-09-19T02:56:44.565Z,16.17
2018-09-19T02:59:27.757Z,20.43
2018-09-19T03:02:11.061Z,21.97
2018-09-19T03:04:53.674Z,11.90
2018-09-19T03:07:36.495Z,13.23
2018-09-19T03:10:19.130Z,12.50
2018-09-19T03:13:02.190Z,18.20
2018-09-19T03:15:44.764Z,16.03
2018-09-19T03:18:27.277Z,19.60
2018-09-19T03:21:10.088Z,22.30
2018-09-19T03:23:52.727Z,10.37
2018-09-19T03:26:35.507Z,11.93
2018-09-19T03:29:18.255Z,22.37
2018-09-19T03:32:01.905Z,14.67
2018-09-19T03:34:45.844Z,11.90
2018-09-19T03:37:28.910Z,11.53
2018-09-19T03:40:12.588Z,13.93
2018-09-19T03:42:55.454Z,23.50
2018-09-19T03:45:38.029Z,15.83
2018-09-19T03:48:20.644Z,25.63
2018-09-19T03:51:03.240Z,17.70
2018-09-19T03:53:46.071Z,17.53
2018-09-19T03:56:29.917Z,23.97
2018-09-19T03:59:12.163Z,11.17
2018-09-19T04:01:54.949Z,14.33
2018-09-19T04:04:37.865Z,15.60
2018-09-19T04:07:20.362Z,19.20
2018-09-19T04:10:02.942Z,22.30
2018-09-19T04:12:45.821Z,18.37
2018-09-19T04:15:28.542Z,19.53
2018-09-19T04:18:11.120Z,32.40
2018-09-19T04:20:53.746Z,24.77
2018-09-19T04:23:36.412Z,25.60
2018-09-19T04:26:19.148Z,27.53
2018-09-19T04:29:01.864Z,21.33
2018-09-19T04:31:44.827Z,17.57
2018-09-19T04:34:27.192Z,15.77
2018-09-19T04:37:09.993Z,25.77
2018-09-19T04:39:52.594Z,14.20
2018-09-19T04:42:35.563Z,12.70
2018-09-19T04:45:17.997Z,13.13
2018-09-19T04:48:01.117Z,14.83
2018-09-19T04:50:43.816Z,16.60
2018-09-19T04:53:26.083Z,21.17
2018-09-19T04:56:08.621Z,14.50
2018-09-19T04:58:51.442Z,20.73
2018-09-19T05:01:34.404Z,18.57
2018-09-19T05:04:16.662Z,14.63
2018-09-19T05:06:59.452Z,27.07
2018-09-19T05:09:42.258Z,35.47
2018-09-19T05:12:25.015Z,22.20
2018-09-19T05:15:07.702Z,21.33
2018-09-19T05:17:50.631Z,37.73
2018-09-19T05:20:34.295Z,20.90
2018-09-19T05:23:17.142Z,26.40
2018-09-19T05:25:59.799Z,19.93
2018-09-19T05:28:42.349Z,19.63
2018-09-19T05:31:25.034Z,17.20
2018-09-19T05:34:07.850Z,27.47
2018-09-19T05:36:50.803Z,15.17
2018-09-19T05:39:34.078Z,23.13
2018-09-19T05:42:17.219Z,24.37
2018-09-19T05:45:00.674Z,19.17
2018-09-19T05:47:42.980Z,18.40
2018-09-19T05:50:25.683Z,23.83
2018-09-19T05:53:08.339Z,29.40
2018-09-19T05:55:51.121Z,18.77
2018-09-19T05:58:34.021Z,16.37
2018-09-19T06:01:16.731Z,21.63
2018-09-19T06:03:59.354Z,19.00
2018-09-19T06:06:42.170Z,28.43
2018-09-19T06:09:25.150Z,15.13
2018-09-19T06:12:07.608Z,28.83
2018-09-19T06:14:50.391Z,18.53
2018-09-19T06:17:33.269Z,19.63
2018-09-19T06:20:15.971Z,22.77
2018-09-19T06:22:58.775Z,18.03
2018-09-19T06:25:41.686Z,15.47
2018-09-19T06:28:24.174Z,17.27
2018-09-19T06:31:07.052Z,13.90
2018-09-19T06:33:49.494Z,24.27
2018-09-19T06:36:32.298Z,16.33
2018-09-19T06:39:14.739Z,9.33
2018-09-19T06:41:57.310Z,16.20
2018-09-19T06:44:39.963Z,26.23
2018-09-19T06:47:23.430Z,24.27
2018-09-19T06:50:06.452Z,24.30
2018-09-19T06:52:49.125Z,13.37
2018-09-19T06:55:32.131Z,11.23
2018-09-19T06:58:14.855Z,30.03
2018-09-19T07:00:57.632Z,20.30
2018-09-19T07:03:40.104Z,15.77
2018-09-19T07:06:22.774Z,17.10
2018-09-19T07:09:06.829Z,22.00
2018-09-19T07:11:49.153Z,15.87
2018-09-19T07:14:31.913Z,24.10
2018-09-19T07:17:14.837Z,15.60
2018-09-19T07:19:57.678Z,17.50
2018-09-19T07:22:40.246Z,29.03
2018-09-19T07:25:22.923Z,19.17
2018-09-19T07:28:05.678Z,18.60
2018-09-19T07:30:48.666Z,15.70
2018-09-19T07:33:31.185Z,14.70
2018-09-19T07:36:14.371Z,10.37
2018-09-19T07:38:57.770Z,12.90
2018-09-19T07:41:40.867Z,16.37
2018-09-19T07:44:24.106Z,20.20
2018-09-19T07:47:06.935Z,9.53
2018-09-19T07:49:49.297Z,16.67
2018-09-19T07:52:31.890Z,17.93
2018-09-19T07:55:14.991Z,18.17
2018-09-19T07:57:57.197Z,18.20
2018-09-19T08:00:40.224Z,14.00
2018-09-19T08:03:22.835Z,15.77
2018-09-19T08:06:05.876Z,29.00
2018-09-19T08:08:48.111Z,12.23
2018-09-19T08:11:30.847Z,17.90
2018-09-19T08:14:13.658Z,9.68
2018-09-19T08:16:56.686Z,14.80
2018-09-19T08:19:39.975Z,12.85
2018-09-19T08:22:22.429Z,20.23
2018-09-19T08:25:05.246Z,7.65
2018-09-19T08:27:48.371Z,7.35
2018-09-19T08:30:31.267Z,18.75
2018-09-19T08:33:14.397Z,15.53
2018-09-19T08:35:57.172Z,9.15
2018-09-19T08:38:39.948Z,12.18
2018-09-19T08:41:22.615Z,10.48
2018-09-19T08:44:05.967Z,12.00
2018-09-19T08:46:49.150Z,11.40
2018-09-19T08:49:31.722Z,19.25
2018-09-19T08:52:14.489Z,10.65
2018-09-19T08:54:57.403Z,9.03
2018-09-19T08:57:39.667Z,11.90
2018-09-19T09:00:22.294Z,7.58
2018-09-19T09:03:05.122Z,14.43
2018-09-19T09:05:47.563Z,10.53
2018-09-19T09:08:30.225Z,16.90
2018-09-19T09:11:12.942Z,16.02
2018-09-19T09:13:55.651Z,8.50
2018-09-19T09:16:38.220Z,8.93
2018-09-19T09:19:21.021Z,13.43
2018-09-19T09:22:03.954Z,12.47
2018-09-19T09:24:46.676Z,11.68
2018-09-19T09:27:29.335Z,18.62
2018-09-19T09:30:12.081Z,21.52
2018-09-19T09:32:54.679Z,20.90
2018-09-19T09:35:37.976Z,19.75
2018-09-19T09:38:21.357Z,7.30
2018-09-19T09:41:04.656Z,11.25
2018-09-19T09:43:47.441Z,9.83
2018-09-19T09:46:30.530Z,20.57
2018-09-19T09:49:12.925Z,8.50
2018-09-19T09:51:55.780Z,20.08
2018-09-19T09:54:38.491Z,12.37
2018-09-19T09:57:21.174Z,10.68
2018-09-19T10:00:04.332Z,11.88
2018-09-19T10:02:46.892Z,17.15
2018-09-19T10:05:29.524Z,19.98
2018-09-19T10:08:12.479Z,15.50
2018-09-19T10:10:55.338Z,13.68
2018-09-19T10:13:38.349Z,12.63
2018-09-19T10:16:20.977Z,10.30
2018-09-19T10:19:03.724Z,15.18
2018-09-19T10:21:46.628Z,10.08
2018-09-19T10:24:29.525Z,12.15
2018-09-19T10:27:12.179Z,10.18
2018-09-19T10:29:54.968Z,9.00
2018-09-19T10:32:37.828Z,11.60
2018-09-19T10:35:20.606Z,16.73
2018-09-19T10:38:03.295Z,14.07
2018-09-19T10:40:46.107Z,7.15
2018-09-19T10:43:28.884Z,13.00
2018-09-19T10:46:11.811Z,12.58
2018-09-19T10:48:54.547Z,12.80
2018-09-19T10:51:37.175Z,10.95
2018-09-19T10:54:19.838Z,11.33
2018-09-19T10:57:02.615Z,11.70
2018-09-19T10:59:45.304Z,9.43
2018-09-19T11:02:28.478Z,9.83
2018-09-19T11:05:10.963Z,16.65
2018-09-19T11:07:53.784Z,17.35
2018-09-19T11:10:36.646Z,8.25
2018-09-19T11:13:19.818Z,20.25
2018-09-19T11:16:02.601Z,12.95
2018-09-19T11:18:45.042Z,21.90
2018-09-19T11:21:27.947Z,19.35
2018-09-19T11:24:10.626Z,10.60
2018-09-19T11:26:53.927Z,12.95
2018-09-19T11:29:36.295Z,20.27
2018-09-19T11:32:19.216Z,12.40
2018-09-19T11:35:02.016Z,15.13
2018-09-19T11:37:44.802Z,14.87
2018-09-19T11:40:27.661Z,14.85
2018-09-19T11:43:10.312Z,10.88
2018-09-19T11:45:53.018Z,15.05
2018-09-19T11:48:36.026Z,8.80
2018-09-19T11:51:18.736Z,10.30
2018-09-19T11:54:01.525Z,9.90
2018-09-19T11:56:44.434Z,13.13
2018-09-19T11:59:27.220Z,11.88
2018-09-19T12:02:09.879Z,12.85
2018-09-19T12:04:52.588Z,13.43
2018-09-19T12:07:35.386Z,7.25
2018-09-19T12:10:18.991Z,10.53
2018-09-19T12:13:01.856Z,9.85
2018-09-19T12:15:44.669Z,10.15
2018-09-19T12:18:28.710Z,11.95
2018-09-19T12:21:11.071Z,11.78
2018-09-19T12:23:53.825Z,16.45
2018-09-19T12:26:36.927Z,12.70
2018-09-19T12:29:19.697Z,16.93
2018-09-19T12:32:02.719Z,12.80
2018-09-19T12:34:45.314Z,11.75
2018-09-19T12:37:28.090Z,10.48
2018-09-19T12:40:10.779Z,14.35
2018-09-19T12:42:53.606Z,11.38
2018-09-19T12:45:36.547Z,14.43
2018-09-19T12:48:19.836Z,10.28
2018-09-19T12:51:03.549Z,15.78
2018-09-19T12:53:45.834Z,15.68
2018-09-19T12:56:28.635Z,14.33
2018-09-19T12:59:12.090Z,12.37
2018-09-19T13:01:55.243Z,17.12
2018-09-19T13:04:38.138Z,17.20
2018-09-19T13:07:20.690Z,7.72
2018-09-19T13:10:03.590Z,18.48
2018-09-19T13:12:46.246Z,24.52
2018-09-19T13:15:28.782Z,13.70
2018-09-19T13:18:11.663Z,11.88
2018-09-19T13:20:54.522Z,16.75
2018-09-19T13:23:37.119Z,12.70
2018-09-19T13:26:22.802Z,10.03
2018-09-19T13:29:06.598Z,15.72
2018-09-19T13:31:49.619Z,19.12
2018-09-19T13:34:32.142Z,9.98
2018-09-19T13:37:14.987Z,13.85
2018-09-19T13:39:57.851Z,19.67
2018-09-19T13:42:41.050Z,10.03
2018-09-19T13:45:23.286Z,11.40
2018-09-19T13:48:06.673Z,15.83
2018-09-19T13:50:56.255Z,14.58
2018-09-19T13:53:38.810Z,11.93
2018-09-19T13:56:22.791Z,10.00
2018-09-19T13:59:05.412Z,15.03
2018-09-19T14:01:47.921Z,12.53
2018-09-19T14:04:30.662Z,15.38
2018-09-19T14:07:13.346Z,12.63
2018-09-19T14:09:56.045Z,17.37
2018-09-19T14:12:38.870Z,12.75
2018-09-19T14:15:21.626Z,15.35
2018-09-19T14:18:04.352Z,13.10
2018-09-19T14:20:47.046Z,17.12
2018-09-19T14:23:30.519Z,28.42
2018-09-19T14:26:13.630Z,14.05
2018-09-19T14:28:56.318Z,21.68
2018-09-19T14:31:39.050Z,16.60
2018-09-19T14:34:21.840Z,19.65
2018-09-19T14:37:04.509Z,11.50
2018-09-19T14:39:47.292Z,16.65
2018-09-19T14:42:30.238Z,14.55
2018-09-19T14:45:13.194Z,14.47
2018-09-19T14:47:55.601Z,21.42
2018-09-19T14:50:38.366Z,10.10
2018-09-19T14:53:20.926Z,12.07
2018-09-19T14:56:03.654Z,23.55
2018-09-19T14:58:46.387Z,18.42
2018-09-19T15:01:29.126Z,21.60
2018-09-19T15:04:11.834Z,17.35
2018-09-19T15:06:54.386Z,8.97
2018-09-19T15:09:37.003Z,21.00
2018-09-19T15:12:19.782Z,17.77
2018-09-19T15:15:02.500Z,12.83
2018-09-19T15:17:45.194Z,16.43
2018-09-19T15:20:27.803Z,15.90
2018-09-19T15:23:10.578Z,16.63
2018-09-19T15:25:53.413Z,20.50
2018-09-19T15:28:36.091Z,20.87
2018-09-19T15:31:18.719Z,17.83
2018-09-19T15:34:01.684Z,20.67
2018-09-19T15:36:44.302Z,12.53
2018-09-19T15:39:27.644Z,19.47
2018-09-19T15:42:10.679Z,14.53
2018-09-19T15:44:53.326Z,15.30
2018-09-19T15:47:36.151Z,22.47
2018-09-19T15:50:18.851Z,19.63
2018-09-19T15:53:01.511Z,13.10
2018-09-19T15:55:44.283Z,15.13
2018-09-19T15:58:26.947Z,19.67
2018-09-19T16:01:09.876Z,15.10
2018-09-19T16:03:52.884Z,13.60
2018-09-19T16:06:35.398Z,17.33
2018-09-19T16:09:18.160Z,22.87
2018-09-19T16:12:01.124Z,15.87
2018-09-19T16:14:43.454Z,18.70
2018-09-19T16:17:26.498Z,20.97
2018-09-19T16:20:08.965Z,14.60
2018-09-19T16:22:51.699Z,16.50
2018-09-19T16:25:34.754Z,16.93
2018-09-19T16:28:18.285Z,16.83
2018-09-19T16:31:01.761Z,15.77
2018-09-19T16:33:44.227Z,13.93
2018-09-19T16:36:26.963Z,26.43
2018-09-19T16:39:11.539Z,20.97
2018-09-19T16:41:54.471Z,17.90
2018-09-19T16:44:37.193Z,16.47
2018-09-19T16:47:19.878Z,17.33
2018-09-19T16:50:03.032Z,15.27
2018-09-19T16:52:45.531Z,22.97
2018-09-19T16:55:28.408Z,24.27
2018-09-19T16:58:11.226Z,27.90
2018-09-19T17:00:53.981Z,14.10
2018-09-19T17:03:36.525Z,22.13
2018-09-19T17:06:19.059Z,24.13
2018-09-19T17:09:01.982Z,24.03
2018-09-19T17:11:44.666Z,21.40
2018-09-19T17:14:27.850Z,25.50
2018-09-19T17:17:10.903Z,32.13
2018-09-19T17:19:53.450Z,19.27
2018-09-19T17:22:36.510Z,17.07
2018-09-19T17:25:18.995Z,19.43
2018-09-19T17:28:02.375Z,19.87
2018-09-19T17:30:45.551Z,21.97
2018-09-19T17:33:28.025Z,17.70
2018-09-19T17:36:11.134Z,21.57
2018-09-19T17:38:53.449Z,27.93
2018-09-19T17:41:36.774Z,15.83
2018-09-19T17:44:19.042Z,16.90
2018-09-19T17:47:02.256Z,21.70
2018-09-19T17:49:45.378Z,24.57
2018-09-19T17:52:28.429Z,22.57
2018-09-19T17:55:11.269Z,18.33
2018-09-19T17:57:53.994Z,25.07
2018-09-19T18:00:36.787Z,18.40
2018-09-19T18:03:19.856Z,20.07
2018-09-19T18:06:02.544Z,20.30
2018-09-19T18:08:45.177Z,20.60
2018-09-19T18:11:28.118Z,23.37
2018-09-19T18:14:10.710Z,29.20
2018-09-19T18:16:53.412Z,23.77
2018-09-19T18:19:36.362Z,31.30
2018-09-19T18:22:19.111Z,30.23
2018-09-19T18:25:01.932Z,33.00
2018-09-19T18:27:44.459Z,42.83
2018-09-19T18:30:27.758Z,27.17
2018-09-19T18:33:10.990Z,14.23
2018-09-19T18:35:53.774Z,30.97
2018-09-19T18:38:36.607Z,23.90
2018-09-19T18:41:19.670Z,33.50
2018-09-19T18:44:02.018Z,27.73
2018-09-19T18:46:45.129Z,34.57
2018-09-19T18:49:27.566Z,25.77
2018-09-19T18:52:10.434Z,41.33
2018-09-19T18:54:56.503Z,44.00
2018-09-19T18:57:38.756Z,52.60
2018-09-19T19:00:21.450Z,35.47
2018-09-19T19:03:04.428Z,47.80
2018-09-19T19:05:46.987Z,60.17
2018-09-19T19:08:29.833Z,77.27
2018-09-19T19:11:12.543Z,156.50
2018-09-19T19:13:55.386Z,48.20
2018-09-19T19:16:38.068Z,58.80
2018-09-19T19:19:20.826Z,51.57
2018-09-19T19:22:04.026Z,55.80
2018-09-19T19:24:47.206Z,39.27
2018-09-19T19:27:30.129Z,31.67
2018-09-19T19:30:13.046Z,23.23
2018-09-19T19:32:55.536Z,23.77
2018-09-19T19:35:37.889Z,29.40
2018-09-19T19:38:20.680Z,24.40
2018-09-19T19:41:03.600Z,18.67
2018-09-19T19:43:46.334Z,31.30
2018-09-19T19:46:29.351Z,20.53
2018-09-19T19:49:12.039Z,20.97
2018-09-19T19:51:54.842Z,27.07
2018-09-19T19:54:37.769Z,19.90
2018-09-19T19:57:20.506Z,24.73
2018-09-19T20:00:03.246Z,23.60
2018-09-19T20:02:46.766Z,18.60
2018-09-19T20:05:29.519Z,34.07
2018-09-19T20:08:12.719Z,31.00
2018-09-19T20:10:55.482Z,32.77
2018-09-19T20:13:38.578Z,22.37
2018-09-19T20:16:21.507Z,25.53
2018-09-19T20:19:04.266Z,24.00
2018-09-19T20:21:46.610Z,27.17
2018-09-19T20:24:29.834Z,20.90
2018-09-19T20:27:13.784Z,28.80
2018-09-19T20:29:56.851Z,26.77
2018-09-19T20:32:39.331Z,24.13
2018-09-19T20:35:22.466Z,23.80
2018-09-19T20:38:05.082Z,22.33
2018-09-19T20:40:47.675Z,18.53
2018-09-19T20:43:30.392Z,17.70
2018-09-19T20:46:13.576Z,27.43
2018-09-19T20:48:56.326Z,21.53
2018-09-19T20:51:41.836Z,21.50
2018-09-19T20:54:28.458Z,25.63
2018-09-19T20:57:16.221Z,16.20
2018-09-19T20:59:59.811Z,20.17
2018-09-19T21:02:42.315Z,28.67
2018-09-19T21:05:25.154Z,15.73
2018-09-19T21:08:07.581Z,20.53
2018-09-19T21:10:50.492Z,22.60
2018-09-19T21:13:33.046Z,20.37
2018-09-19T21:16:15.825Z,12.70
2018-09-19T21:18:58.302Z,18.60
2018-09-19T21:21:41.107Z,13.43
2018-09-19T21:24:23.742Z,19.20
2018-09-19T21:27:06.449Z,28.87
2018-09-19T21:29:49.241Z,15.47
2018-09-19T21:32:32.313Z,26.83
2018-09-19T21:35:15.420Z,26.47
2018-09-19T21:37:58.582Z,17.37
2018-09-19T21:40:41.377Z,19.80
2018-09-19T21:43:24.532Z,24.53
2018-09-19T21:46:07.087Z,14.83
2018-09-19T21:48:49.542Z,23.87
2018-09-19T21:51:32.183Z,18.03
2018-09-19T21:54:14.818Z,20.37
2018-09-19T21:56:58.494Z,20.13
2018-09-19T21:59:41.390Z,18.90
2018-09-19T22:02:24.032Z,22.63
2018-09-19T22:05:07.033Z,12.97
2018-09-19T22:07:50.413Z,24.03
2018-09-19T22:10:33.103Z,17.80
2018-09-19T22:13:15.719Z,18.90
2018-09-19T22:15:58.501Z,22.57
2018-09-19T22:18:41.008Z,15.83
2018-09-19T22:21:23.659Z,15.80
2018-09-19T22:24:06.642Z,20.00
2018-09-19T22:26:49.483Z,18.97
2018-09-19T22:29:32.035Z,17.77
2018-09-19T22:32:15.106Z,16.37
2018-09-19T22:34:57.652Z,22.30
2018-09-19T22:37:40.447Z,16.60
2018-09-19T22:40:23.144Z,17.37
2018-09-19T22:43:06.639Z,27.90
2018-09-19T22:45:49.757Z,19.60
2018-09-19T22:48:32.334Z,16.10
2018-09-19T22:51:15.176Z,20.47
2018-09-19T22:53:58.172Z,22.10
2018-09-19T22:56:40.875Z,15.53
2018-09-19T22:59:23.606Z,18.00
2018-09-19T23:02:06.244Z,16.40
2018-09-19T23:04:49.036Z,11.30
2018-09-19T23:07:31.682Z,21.20
2018-09-19T23:10:14.356Z,14.00
2018-09-19T23:12:57.171Z,18.30
2018-09-19T23:15:40.010Z,20.57
2018-09-19T23:18:22.570Z,22.50
2018-09-19T23:21:05.310Z,32.70
2018-09-19T23:23:48.167Z,22.63
2018-09-19T23:26:31.055Z,18.23
2018-09-19T23:29:13.788Z,15.63
2018-09-19T23:31:56.315Z,15.53
2018-09-19T23:34:39.277Z,25.83
2018-09-19T23:37:22.032Z,23.53
2018-09-19T23:40:04.558Z,14.60
2018-09-19T23:42:47.175Z,22.13
2018-09-19T23:45:29.847Z,18.47
2018-09-19T23:48:12.777Z,23.60
2018-09-19T23:50:55.327Z,20.40
2018-09-19T23:53:38.023Z,17.03
2018-09-19T23:56:20.875Z,28.43
2018-09-19T23:59:03.564Z,15.53
